sensor_id;sensor_type;location;lat;lon;timestamp;temperature;humidity
64939;DHT22;51453;47.738;7.420;2022-10-18T00:01:22;16.00;99.90
64939;DHT22;51453;47.738;7.420;2022-10-18T00:03:48;15.90;99.90
64939;DHT22;51453;47.738;7.420;2022-10-18T00:06:13;15.90;99.90
64939;DHT22;51453;47.738;7.420;2022-10-18T00:08:39;15.90;99.90
64939;DHT22;51453;47.738;7.420;2022-10-18T00:11:05;15.90;99.90
64939;DHT22;51453;47.738;7.420;2022-10-18T00:13:31;15.90;99.90
64939;DHT22;51453;47.738;7.420;2022-10-18T00:16:00;15.90;99.90
64939;DHT22;51453;47.738;7.420;2022-10-18T00:18:26;15.90;99.90
64939;DHT22;51453;47.738;7.420;2022-10-18T00:21:19;15.90;99.90
64939;DHT22;51453;47.738;7.420;2022-10-18T00:23:46;15.90;99.90
64939;DHT22;51453;47.738;7.420;2022-10-18T00:26:13;15.90;99.90
64939;DHT22;51453;47.738;7.420;2022-10-18T00:28:39;15.90;99.90
64939;DHT22;51453;47.738;7.420;2022-10-18T00:33:35;15.90;99.90
64939;DHT22;51453;47.738;7.420;2022-10-18T00:36:01;15.90;99.90
64939;DHT22;51453;47.738;7.420;2022-10-18T00:38:27;15.80;99.90
64939;DHT22;51453;47.738;7.420;2022-10-18T00:40:52;15.80;99.90
64939;DHT22;51453;47.738;7.420;2022-10-18T00:43:18;15.80;99.90
64939;DHT22;51453;47.738;7.420;2022-10-18T00:45:43;15.80;99.90
64939;DHT22;51453;47.738;7.420;2022-10-18T00:48:10;15.70;99.90
64939;DHT22;51453;47.738;7.420;2022-10-18T00:50:37;15.70;99.90
64939;DHT22;51453;47.738;7.420;2022-10-18T00:53:05;15.70;99.90
64939;DHT22;51453;47.738;7.420;2022-10-18T00:55:33;15.60;99.90
64939;DHT22;51453;47.738;7.420;2022-10-18T00:58:00;15.60;99.90
64939;DHT22;51453;47.738;7.420;2022-10-18T01:00:26;15.50;99.90
64939;DHT22;51453;47.738;7.420;2022-10-18T01:02:51;15.40;99.90
64939;DHT22;51453;47.738;7.420;2022-10-18T01:05:18;15.40;99.90
64939;DHT22;51453;47.738;7.420;2022-10-18T01:07:51;15.40;99.90
64939;DHT22;51453;47.738;7.420;2022-10-18T01:10:29;15.40;99.90
64939;DHT22;51453;47.738;7.420;2022-10-18T01:18:24;15.50;99.90
64939;DHT22;51453;47.738;7.420;2022-10-18T01:29:50;15.40;99.90
64939;DHT22;51453;47.738;7.420;2022-10-18T01:32:47;15.40;99.90
64939;DHT22;51453;47.738;7.420;2022-10-18T01:35:18;15.40;99.90
64939;DHT22;51453;47.738;7.420;2022-10-18T01:37:47;15.50;99.90
64939;DHT22;51453;47.738;7.420;2022-10-18T01:40:17;15.50;99.90
64939;DHT22;51453;47.738;7.420;2022-10-18T01:42:45;15.60;99.90
64939;DHT22;51453;47.738;7.420;2022-10-18T01:45:13;15.70;99.90
64939;DHT22;51453;47.738;7.420;2022-10-18T01:47:41;15.80;99.90
64939;DHT22;51453;47.738;7.420;2022-10-18T01:50:08;15.90;99.90
64939;DHT22;51453;47.738;7.420;2022-10-18T01:52:34;16.00;99.90
64939;DHT22;51453;47.738;7.420;2022-10-18T01:55:01;16.00;99.90
64939;DHT22;51453;47.738;7.420;2022-10-18T01:57:59;16.00;99.90
64939;DHT22;51453;47.738;7.420;2022-10-18T02:00:42;16.00;99.90
64939;DHT22;51453;47.738;7.420;2022-10-18T02:03:22;16.00;99.90
64939;DHT22;51453;47.738;7.420;2022-10-18T02:05:57;16.00;99.90
64939;DHT22;51453;47.738;7.420;2022-10-18T02:08:46;16.00;99.90
64939;DHT22;51453;47.738;7.420;2022-10-18T02:11:15;16.00;99.90
64939;DHT22;51453;47.738;7.420;2022-10-18T02:13:49;15.90;99.90
64939;DHT22;51453;47.738;7.420;2022-10-18T02:18:58;15.90;99.90
64939;DHT22;51453;47.738;7.420;2022-10-18T02:21:27;15.90;99.90
64939;DHT22;51453;47.738;7.420;2022-10-18T02:23:55;15.90;99.90
64939;DHT22;51453;47.738;7.420;2022-10-18T02:26:22;15.90;99.90
64939;DHT22;51453;47.738;7.420;2022-10-18T02:28:48;15.80;99.90
64939;DHT22;51453;47.738;7.420;2022-10-18T02:31:25;15.80;99.90
64939;DHT22;51453;47.738;7.420;2022-10-18T02:33:57;15.80;99.90
64939;DHT22;51453;47.738;7.420;2022-10-18T02:36:38;15.70;99.90
64939;DHT22;51453;47.738;7.420;2022-10-18T02:39:11;15.70;99.90
64939;DHT22;51453;47.738;7.420;2022-10-18T02:41:39;15.60;99.90
64939;DHT22;51453;47.738;7.420;2022-10-18T02:44:05;15.50;99.90
64939;DHT22;51453;47.738;7.420;2022-10-18T02:46:32;15.50;99.90
64939;DHT22;51453;47.738;7.420;2022-10-18T02:48:58;15.40;99.90
64939;DHT22;51453;47.738;7.420;2022-10-18T02:51:24;15.30;99.90
64939;DHT22;51453;47.738;7.420;2022-10-18T02:53:50;15.20;99.90
64939;DHT22;51453;47.738;7.420;2022-10-18T02:56:15;15.10;99.90
64939;DHT22;51453;47.738;7.420;2022-10-18T02:58:41;15.00;99.90
64939;DHT22;51453;47.738;7.420;2022-10-18T03:01:07;14.90;99.90
64939;DHT22;51453;47.738;7.420;2022-10-18T03:03:32;14.90;99.90
64939;DHT22;51453;47.738;7.420;2022-10-18T03:05:58;14.80;99.90
64939;DHT22;51453;47.738;7.420;2022-10-18T03:08:24;14.70;99.90
64939;DHT22;51453;47.738;7.420;2022-10-18T03:10:50;14.60;99.90
64939;DHT22;51453;47.738;7.420;2022-10-18T03:13:16;14.60;99.90
64939;DHT22;51453;47.738;7.420;2022-10-18T03:15:41;14.40;99.90
64939;DHT22;51453;47.738;7.420;2022-10-18T03:18:07;14.40;99.90
64939;DHT22;51453;47.738;7.420;2022-10-18T03:20:33;14.30;99.90
64939;DHT22;51453;47.738;7.420;2022-10-18T03:22:59;14.30;99.90
64939;DHT22;51453;47.738;7.420;2022-10-18T03:25:24;14.20;99.90
64939;DHT22;51453;47.738;7.420;2022-10-18T03:27:50;14.20;99.90
64939;DHT22;51453;47.738;7.420;2022-10-18T03:30:16;14.20;99.90
64939;DHT22;51453;47.738;7.420;2022-10-18T03:32:41;14.20;99.90
64939;DHT22;51453;47.738;7.420;2022-10-18T03:35:07;14.20;99.90
64939;DHT22;51453;47.738;7.420;2022-10-18T03:37:36;14.10;99.90
64939;DHT22;51453;47.738;7.420;2022-10-18T03:40:02;14.10;99.90
64939;DHT22;51453;47.738;7.420;2022-10-18T03:42:28;14.10;99.90
64939;DHT22;51453;47.738;7.420;2022-10-18T03:44:54;14.10;99.90
64939;DHT22;51453;47.738;7.420;2022-10-18T03:47:19;14.10;99.90
64939;DHT22;51453;47.738;7.420;2022-10-18T03:49:45;14.10;99.90
64939;DHT22;51453;47.738;7.420;2022-10-18T03:52:11;14.00;99.90
64939;DHT22;51453;47.738;7.420;2022-10-18T03:54:36;14.00;99.90
64939;DHT22;51453;47.738;7.420;2022-10-18T03:57:02;14.00;99.90
64939;DHT22;51453;47.738;7.420;2022-10-18T03:59:28;14.00;99.90
64939;DHT22;51453;47.738;7.420;2022-10-18T04:01:53;14.00;99.90
64939;DHT22;51453;47.738;7.420;2022-10-18T04:04:19;14.00;99.90
64939;DHT22;51453;47.738;7.420;2022-10-18T04:06:44;14.00;99.90
64939;DHT22;51453;47.738;7.420;2022-10-18T04:09:10;14.00;99.90
64939;DHT22;51453;47.738;7.420;2022-10-18T04:11:36;14.10;99.90
64939;DHT22;51453;47.738;7.420;2022-10-18T04:14:02;14.10;99.90
64939;DHT22;51453;47.738;7.420;2022-10-18T04:16:28;14.00;99.90
64939;DHT22;51453;47.738;7.420;2022-10-18T04:18:53;14.00;99.90
64939;DHT22;51453;47.738;7.420;2022-10-18T04:21:19;14.00;99.90
64939;DHT22;51453;47.738;7.420;2022-10-18T04:23:48;14.10;99.90
64939;DHT22;51453;47.738;7.420;2022-10-18T04:26:15;14.10;99.90
64939;DHT22;51453;47.738;7.420;2022-10-18T04:28:42;14.00;99.90
64939;DHT22;51453;47.738;7.420;2022-10-18T04:31:09;14.00;99.90
64939;DHT22;51453;47.738;7.420;2022-10-18T04:33:35;14.10;99.90
64939;DHT22;51453;47.738;7.420;2022-10-18T04:36:00;14.10;99.90
64939;DHT22;51453;47.738;7.420;2022-10-18T04:38:26;14.10;99.90
64939;DHT22;51453;47.738;7.420;2022-10-18T04:40:52;14.20;99.90
64939;DHT22;51453;47.738;7.420;2022-10-18T04:43:17;14.20;99.90
64939;DHT22;51453;47.738;7.420;2022-10-18T04:45:46;14.30;99.90
64939;DHT22;51453;47.738;7.420;2022-10-18T04:48:13;14.40;99.90
64939;DHT22;51453;47.738;7.420;2022-10-18T04:50:39;14.40;99.90
64939;DHT22;51453;47.738;7.420;2022-10-18T04:53:05;14.40;99.90
64939;DHT22;51453;47.738;7.420;2022-10-18T04:55:31;14.50;99.90
64939;DHT22;51453;47.738;7.420;2022-10-18T04:57:56;14.50;99.90
64939;DHT22;51453;47.738;7.420;2022-10-18T05:00:22;14.50;99.90
64939;DHT22;51453;47.738;7.420;2022-10-18T05:02:48;14.50;99.90
64939;DHT22;51453;47.738;7.420;2022-10-18T05:05:13;14.60;99.90
64939;DHT22;51453;47.738;7.420;2022-10-18T05:07:39;14.60;99.90
64939;DHT22;51453;47.738;7.420;2022-10-18T05:10:05;14.60;99.90
64939;DHT22;51453;47.738;7.420;2022-10-18T05:12:31;14.60;99.90
64939;DHT22;51453;47.738;7.420;2022-10-18T05:14:57;14.60;99.90
64939;DHT22;51453;47.738;7.420;2022-10-18T05:17:23;14.60;99.90
64939;DHT22;51453;47.738;7.420;2022-10-18T05:19:48;14.60;99.90
64939;DHT22;51453;47.738;7.420;2022-10-18T05:22:14;14.60;99.90
64939;DHT22;51453;47.738;7.420;2022-10-18T05:24:39;14.60;99.90
64939;DHT22;51453;47.738;7.420;2022-10-18T05:27:05;14.60;99.90
64939;DHT22;51453;47.738;7.420;2022-10-18T05:29:31;14.50;99.90
64939;DHT22;51453;47.738;7.420;2022-10-18T05:31:56;14.50;99.90
64939;DHT22;51453;47.738;7.420;2022-10-18T05:34:22;14.50;99.90
64939;DHT22;51453;47.738;7.420;2022-10-18T05:36:49;14.50;99.90
64939;DHT22;51453;47.738;7.420;2022-10-18T05:39:14;14.40;99.90
64939;DHT22;51453;47.738;7.420;2022-10-18T05:41:40;14.40;99.90
64939;DHT22;51453;47.738;7.420;2022-10-18T05:44:06;14.30;99.90
64939;DHT22;51453;47.738;7.420;2022-10-18T05:46:32;14.30;99.90
64939;DHT22;51453;47.738;7.420;2022-10-18T05:48:58;14.30;99.90
64939;DHT22;51453;47.738;7.420;2022-10-18T05:51:23;14.30;99.90
64939;DHT22;51453;47.738;7.420;2022-10-18T05:53:49;14.30;99.90
64939;DHT22;51453;47.738;7.420;2022-10-18T05:56:15;14.30;99.90
64939;DHT22;51453;47.738;7.420;2022-10-18T05:58:42;14.30;99.90
64939;DHT22;51453;47.738;7.420;2022-10-18T06:01:08;14.40;99.90
64939;DHT22;51453;47.738;7.420;2022-10-18T06:03:35;14.40;99.90
64939;DHT22;51453;47.738;7.420;2022-10-18T06:06:08;14.40;99.90
64939;DHT22;51453;47.738;7.420;2022-10-18T06:08:35;14.50;99.90
64939;DHT22;51453;47.738;7.420;2022-10-18T06:11:15;14.50;99.90
64939;DHT22;51453;47.738;7.420;2022-10-18T06:13:51;14.60;99.90
64939;DHT22;51453;47.738;7.420;2022-10-18T06:16:19;14.60;99.90
64939;DHT22;51453;47.738;7.420;2022-10-18T06:18:49;14.70;99.90
64939;DHT22;51453;47.738;7.420;2022-10-18T06:21:16;14.70;99.90
64939;DHT22;51453;47.738;7.420;2022-10-18T06:23:41;14.70;99.90
64939;DHT22;51453;47.738;7.420;2022-10-18T06:26:09;14.70;99.90
64939;DHT22;51453;47.738;7.420;2022-10-18T06:28:36;14.80;99.90
64939;DHT22;51453;47.738;7.420;2022-10-18T06:31:02;14.80;99.90
64939;DHT22;51453;47.738;7.420;2022-10-18T06:33:29;14.80;99.90
64939;DHT22;51453;47.738;7.420;2022-10-18T06:36:03;14.80;99.90
64939;DHT22;51453;47.738;7.420;2022-10-18T06:38:29;14.90;99.90
64939;DHT22;51453;47.738;7.420;2022-10-18T06:40:56;14.90;99.90
64939;DHT22;51453;47.738;7.420;2022-10-18T06:43:22;14.90;99.90
64939;DHT22;51453;47.738;7.420;2022-10-18T06:45:48;14.90;99.90
64939;DHT22;51453;47.738;7.420;2022-10-18T06:48:15;15.00;99.90
64939;DHT22;51453;47.738;7.420;2022-10-18T06:50:40;15.00;99.90
64939;DHT22;51453;47.738;7.420;2022-10-18T06:53:06;15.10;99.90
64939;DHT22;51453;47.738;7.420;2022-10-18T06:55:33;15.10;99.90
64939;DHT22;51453;47.738;7.420;2022-10-18T06:58:00;15.20;99.90
64939;DHT22;51453;47.738;7.420;2022-10-18T07:00:26;15.30;99.90
64939;DHT22;51453;47.738;7.420;2022-10-18T07:02:52;15.40;99.90
64939;DHT22;51453;47.738;7.420;2022-10-18T07:05:17;15.40;99.90
64939;DHT22;51453;47.738;7.420;2022-10-18T07:07:43;15.50;99.90
64939;DHT22;51453;47.738;7.420;2022-10-18T07:10:09;15.70;99.90
64939;DHT22;51453;47.738;7.420;2022-10-18T07:12:35;15.80;99.90
64939;DHT22;51453;47.738;7.420;2022-10-18T07:15:00;15.90;99.90
64939;DHT22;51453;47.738;7.420;2022-10-18T07:17:26;16.00;99.90
64939;DHT22;51453;47.738;7.420;2022-10-18T07:19:52;16.00;99.90
64939;DHT22;51453;47.738;7.420;2022-10-18T07:22:18;16.00;99.90
64939;DHT22;51453;47.738;7.420;2022-10-18T07:24:43;16.00;99.90
64939;DHT22;51453;47.738;7.420;2022-10-18T07:27:09;16.00;99.90
64939;DHT22;51453;47.738;7.420;2022-10-18T07:29:35;16.00;99.90
64939;DHT22;51453;47.738;7.420;2022-10-18T07:32:03;16.00;99.90
64939;DHT22;51453;47.738;7.420;2022-10-18T07:34:29;16.10;99.90
64939;DHT22;51453;47.738;7.420;2022-10-18T07:36:54;16.20;99.90
64939;DHT22;51453;47.738;7.420;2022-10-18T07:39:20;16.40;99.90
64939;DHT22;51453;47.738;7.420;2022-10-18T07:41:46;16.50;99.90
64939;DHT22;51453;47.738;7.420;2022-10-18T07:44:11;16.70;99.90
64939;DHT22;51453;47.738;7.420;2022-10-18T07:46:37;16.80;99.90
64939;DHT22;51453;47.738;7.420;2022-10-18T07:49:03;16.80;99.90
64939;DHT22;51453;47.738;7.420;2022-10-18T07:51:29;16.90;99.90
64939;DHT22;51453;47.738;7.420;2022-10-18T07:53:57;16.90;99.90
64939;DHT22;51453;47.738;7.420;2022-10-18T07:56:23;16.90;99.90
64939;DHT22;51453;47.738;7.420;2022-10-18T07:58:51;17.00;99.90
64939;DHT22;51453;47.738;7.420;2022-10-18T08:01:17;17.10;99.90
64939;DHT22;51453;47.738;7.420;2022-10-18T08:03:43;17.20;99.90
64939;DHT22;51453;47.738;7.420;2022-10-18T08:06:11;17.30;99.90
64939;DHT22;51453;47.738;7.420;2022-10-18T08:08:38;17.40;99.90
64939;DHT22;51453;47.738;7.420;2022-10-18T08:11:08;17.60;99.90
64939;DHT22;51453;47.738;7.420;2022-10-18T08:13:34;17.80;99.90
64939;DHT22;51453;47.738;7.420;2022-10-18T08:16:01;17.90;99.90
64939;DHT22;51453;47.738;7.420;2022-10-18T08:18:27;18.10;99.90
64939;DHT22;51453;47.738;7.420;2022-10-18T08:20:53;18.10;99.90
64939;DHT22;51453;47.738;7.420;2022-10-18T08:23:19;18.20;99.90
64939;DHT22;51453;47.738;7.420;2022-10-18T08:25:44;18.10;99.90
64939;DHT22;51453;47.738;7.420;2022-10-18T08:28:10;18.20;99.90
64939;DHT22;51453;47.738;7.420;2022-10-18T08:30:38;18.30;99.90
64939;DHT22;51453;47.738;7.420;2022-10-18T08:33:04;18.30;99.90
64939;DHT22;51453;47.738;7.420;2022-10-18T08:35:30;18.40;99.90
64939;DHT22;51453;47.738;7.420;2022-10-18T08:37:57;18.50;99.90
64939;DHT22;51453;47.738;7.420;2022-10-18T08:40:22;18.50;99.90
64939;DHT22;51453;47.738;7.420;2022-10-18T08:45:22;18.30;99.90
64939;DHT22;51453;47.738;7.420;2022-10-18T08:47:49;18.20;99.90
64939;DHT22;51453;47.738;7.420;2022-10-18T08:50:20;18.10;99.90
64939;DHT22;51453;47.738;7.420;2022-10-18T08:55:38;18.10;99.90
64939;DHT22;51453;47.738;7.420;2022-10-18T08:58:35;18.20;99.90
64939;DHT22;51453;47.738;7.420;2022-10-18T09:21:19;18.90;99.90
64939;DHT22;51453;47.738;7.420;2022-10-18T09:23:49;19.00;99.90
64939;DHT22;51453;47.738;7.420;2022-10-18T09:26:21;19.10;99.90
64939;DHT22;51453;47.738;7.420;2022-10-18T09:31:51;19.40;99.90
64939;DHT22;51453;47.738;7.420;2022-10-18T09:34:30;19.60;99.90
64939;DHT22;51453;47.738;7.420;2022-10-18T09:36:56;19.70;99.90
64939;DHT22;51453;47.738;7.420;2022-10-18T09:39:27;19.90;99.90
64939;DHT22;51453;47.738;7.420;2022-10-18T09:42:21;19.90;99.90
64939;DHT22;51453;47.738;7.420;2022-10-18T09:44:57;19.90;99.90
64939;DHT22;51453;47.738;7.420;2022-10-18T09:47:33;19.90;99.90
64939;DHT22;51453;47.738;7.420;2022-10-18T09:50:08;20.00;99.90
64939;DHT22;51453;47.738;7.420;2022-10-18T09:52:43;20.10;99.90
64939;DHT22;51453;47.738;7.420;2022-10-18T09:55:22;20.20;99.90
64939;DHT22;51453;47.738;7.420;2022-10-18T09:57:56;20.20;99.90
64939;DHT22;51453;47.738;7.420;2022-10-18T10:00:36;20.30;99.90
64939;DHT22;51453;47.738;7.420;2022-10-18T10:03:10;20.30;99.90
64939;DHT22;51453;47.738;7.420;2022-10-18T10:05:37;20.30;99.90
64939;DHT22;51453;47.738;7.420;2022-10-18T10:08:02;20.40;99.90
64939;DHT22;51453;47.738;7.420;2022-10-18T10:10:29;20.30;99.90
64939;DHT22;51453;47.738;7.420;2022-10-18T10:13:14;20.30;99.90
64939;DHT22;51453;47.738;7.420;2022-10-18T10:15:51;20.30;99.90
64939;DHT22;51453;47.738;7.420;2022-10-18T10:18:21;20.30;99.90
64939;DHT22;51453;47.738;7.420;2022-10-18T10:20:55;20.30;99.90
64939;DHT22;51453;47.738;7.420;2022-10-18T10:23:26;20.40;99.90
64939;DHT22;51453;47.738;7.420;2022-10-18T10:25:57;20.40;99.90
64939;DHT22;51453;47.738;7.420;2022-10-18T10:28:27;20.30;99.90
64939;DHT22;51453;47.738;7.420;2022-10-18T10:31:18;20.40;99.90
64939;DHT22;51453;47.738;7.420;2022-10-18T10:36:30;20.60;99.90
64939;DHT22;51453;47.738;7.420;2022-10-18T10:39:06;20.60;99.90
64939;DHT22;51453;47.738;7.420;2022-10-18T10:41:35;20.60;99.90
64939;DHT22;51453;47.738;7.420;2022-10-18T10:44:04;20.60;99.90
64939;DHT22;51453;47.738;7.420;2022-10-18T10:46:37;20.60;99.90
64939;DHT22;51453;47.738;7.420;2022-10-18T10:49:03;20.60;99.90
64939;DHT22;51453;47.738;7.420;2022-10-18T10:51:32;20.60;99.90
64939;DHT22;51453;47.738;7.420;2022-10-18T10:56:31;20.60;99.90
64939;DHT22;51453;47.738;7.420;2022-10-18T10:59:09;20.80;99.90
64939;DHT22;51453;47.738;7.420;2022-10-18T11:01:38;20.80;99.90
64939;DHT22;51453;47.738;7.420;2022-10-18T11:04:30;20.80;99.90
64939;DHT22;51453;47.738;7.420;2022-10-18T11:12:35;21.00;99.90
64939;DHT22;51453;47.738;7.420;2022-10-18T11:15:13;21.10;99.90
64939;DHT22;51453;47.738;7.420;2022-10-18T11:23:14;21.20;99.90
64939;DHT22;51453;47.738;7.420;2022-10-18T11:28:57;21.10;99.90
64939;DHT22;51453;47.738;7.420;2022-10-18T11:31:39;21.20;99.90
64939;DHT22;51453;47.738;7.420;2022-10-18T11:41:53;21.60;99.90
64939;DHT22;51453;47.738;7.420;2022-10-18T11:47:21;21.60;99.90
64939;DHT22;51453;47.738;7.420;2022-10-18T11:50:11;21.60;99.90
64939;DHT22;51453;47.738;7.420;2022-10-18T12:04:16;21.80;99.90
64939;DHT22;51453;47.738;7.420;2022-10-18T12:06:46;21.80;99.90
64939;DHT22;51453;47.738;7.420;2022-10-18T12:09:18;21.70;99.90
64939;DHT22;51453;47.738;7.420;2022-10-18T12:11:54;21.70;99.90
64939;DHT22;51453;47.738;7.420;2022-10-18T12:14:40;21.80;99.90
64939;DHT22;51453;47.738;7.420;2022-10-18T12:17:18;21.90;99.90
64939;DHT22;51453;47.738;7.420;2022-10-18T12:19:46;22.00;99.90
64939;DHT22;51453;47.738;7.420;2022-10-18T12:22:35;22.10;99.90
64939;DHT22;51453;47.738;7.420;2022-10-18T12:25:03;22.20;99.90
64939;DHT22;51453;47.738;7.420;2022-10-18T12:27:59;22.20;99.90
64939;DHT22;51453;47.738;7.420;2022-10-18T12:30:52;22.20;99.90
64939;DHT22;51453;47.738;7.420;2022-10-18T12:33:21;22.40;99.90
64939;DHT22;51453;47.738;7.420;2022-10-18T12:38:34;22.60;99.90
64939;DHT22;51453;47.738;7.420;2022-10-18T12:41:00;22.60;99.90
64939;DHT22;51453;47.738;7.420;2022-10-18T12:43:30;22.60;99.90
64939;DHT22;51453;47.738;7.420;2022-10-18T12:46:04;22.60;99.90
64939;DHT22;51453;47.738;7.420;2022-10-18T12:48:42;22.50;99.90
64939;DHT22;51453;47.738;7.420;2022-10-18T12:51:21;22.50;99.90
64939;DHT22;51453;47.738;7.420;2022-10-18T13:17:32;23.00;99.90
64939;DHT22;51453;47.738;7.420;2022-10-18T13:20:25;22.90;99.90
64939;DHT22;51453;47.738;7.420;2022-10-18T13:23:06;22.80;99.90
64939;DHT22;51453;47.738;7.420;2022-10-18T13:33:50;22.00;99.90
64939;DHT22;51453;47.738;7.420;2022-10-18T13:46:22;21.60;99.90
64939;DHT22;51453;47.738;7.420;2022-10-18T13:48:58;21.60;99.90
64939;DHT22;51453;47.738;7.420;2022-10-18T14:08:13;22.30;99.90
64939;DHT22;51453;47.738;7.420;2022-10-18T14:10:53;22.30;99.90
64939;DHT22;51453;47.738;7.420;2022-10-18T14:13:24;22.10;99.90
64939;DHT22;51453;47.738;7.420;2022-10-18T14:15:53;22.00;99.90
64939;DHT22;51453;47.738;7.420;2022-10-18T14:18:26;22.00;99.90
64939;DHT22;51453;47.738;7.420;2022-10-18T14:21:00;22.00;99.90
64939;DHT22;51453;47.738;7.420;2022-10-18T14:23:34;21.90;99.90
64939;DHT22;51453;47.738;7.420;2022-10-18T14:26:26;22.00;99.90
64939;DHT22;51453;47.738;7.420;2022-10-18T14:29:18;22.00;99.90
64939;DHT22;51453;47.738;7.420;2022-10-18T14:31:53;22.00;99.90
64939;DHT22;51453;47.738;7.420;2022-10-18T14:34:20;22.00;99.90
64939;DHT22;51453;47.738;7.420;2022-10-18T14:36:47;21.90;99.90
64939;DHT22;51453;47.738;7.420;2022-10-18T14:39:25;22.00;99.90
64939;DHT22;51453;47.738;7.420;2022-10-18T14:41:55;21.90;99.90
64939;DHT22;51453;47.738;7.420;2022-10-18T14:44:25;22.00;99.90
64939;DHT22;51453;47.738;7.420;2022-10-18T14:47:01;21.90;99.90
64939;DHT22;51453;47.738;7.420;2022-10-18T14:49:28;22.00;99.90
64939;DHT22;51453;47.738;7.420;2022-10-18T14:51:56;22.00;99.90
64939;DHT22;51453;47.738;7.420;2022-10-18T14:54:36;22.00;99.90
64939;DHT22;51453;47.738;7.420;2022-10-18T14:57:03;22.00;99.90
64939;DHT22;51453;47.738;7.420;2022-10-18T14:59:33;21.90;99.90
64939;DHT22;51453;47.738;7.420;2022-10-18T15:02:16;21.80;99.90
64939;DHT22;51453;47.738;7.420;2022-10-18T15:04:45;21.80;99.90
64939;DHT22;51453;47.738;7.420;2022-10-18T15:07:16;21.80;99.90
64939;DHT22;51453;47.738;7.420;2022-10-18T15:09:42;21.80;99.90
64939;DHT22;51453;47.738;7.420;2022-10-18T15:12:12;21.70;99.90
64939;DHT22;51453;47.738;7.420;2022-10-18T15:14:39;21.60;99.90
64939;DHT22;51453;47.738;7.420;2022-10-18T15:20:16;21.60;99.90
64939;DHT22;51453;47.738;7.420;2022-10-18T15:22:42;21.50;99.90
64939;DHT22;51453;47.738;7.420;2022-10-18T15:25:12;21.50;99.90
64939;DHT22;51453;47.738;7.420;2022-10-18T15:27:52;21.40;99.90
64939;DHT22;51453;47.738;7.420;2022-10-18T15:33:03;21.20;99.90
64939;DHT22;51453;47.738;7.420;2022-10-18T15:35:31;21.10;99.90
64939;DHT22;51453;47.738;7.420;2022-10-18T15:38:15;21.10;99.90
64939;DHT22;51453;47.738;7.420;2022-10-18T15:40:42;21.00;99.90
64939;DHT22;51453;47.738;7.420;2022-10-18T15:45:59;20.90;99.90
64939;DHT22;51453;47.738;7.420;2022-10-18T15:48:50;20.80;99.90
64939;DHT22;51453;47.738;7.420;2022-10-18T15:51:47;20.70;99.90
64939;DHT22;51453;47.738;7.420;2022-10-18T15:54:17;20.60;99.90
64939;DHT22;51453;47.738;7.420;2022-10-18T15:56:44;20.50;99.90
64939;DHT22;51453;47.738;7.420;2022-10-18T15:59:23;20.40;99.90
64939;DHT22;51453;47.738;7.420;2022-10-18T16:01:49;20.30;99.90
64939;DHT22;51453;47.738;7.420;2022-10-18T16:04:25;20.10;99.90
64939;DHT22;51453;47.738;7.420;2022-10-18T16:06:51;20.00;99.90
64939;DHT22;51453;47.738;7.420;2022-10-18T16:09:18;19.90;99.90
64939;DHT22;51453;47.738;7.420;2022-10-18T16:11:45;19.80;99.90
64939;DHT22;51453;47.738;7.420;2022-10-18T16:14:11;19.70;99.90
64939;DHT22;51453;47.738;7.420;2022-10-18T16:16:38;19.60;99.90
64939;DHT22;51453;47.738;7.420;2022-10-18T16:19:04;19.50;99.90
64939;DHT22;51453;47.738;7.420;2022-10-18T16:21:33;19.40;99.90
64939;DHT22;51453;47.738;7.420;2022-10-18T16:23:59;19.30;99.90
64939;DHT22;51453;47.738;7.420;2022-10-18T16:26:25;19.10;99.90
64939;DHT22;51453;47.738;7.420;2022-10-18T16:28:52;19.10;99.90
64939;DHT22;51453;47.738;7.420;2022-10-18T16:31:24;19.00;99.90
64939;DHT22;51453;47.738;7.420;2022-10-18T16:33:51;18.90;99.90
64939;DHT22;51453;47.738;7.420;2022-10-18T16:36:19;18.80;99.90
64939;DHT22;51453;47.738;7.420;2022-10-18T16:38:45;18.80;99.90
64939;DHT22;51453;47.738;7.420;2022-10-18T16:41:11;18.70;99.90
64939;DHT22;51453;47.738;7.420;2022-10-18T16:43:41;18.60;99.90
64939;DHT22;51453;47.738;7.420;2022-10-18T16:46:12;18.60;99.90
64939;DHT22;51453;47.738;7.420;2022-10-18T16:48:40;18.50;99.90
64939;DHT22;51453;47.738;7.420;2022-10-18T16:51:05;18.50;99.90
64939;DHT22;51453;47.738;7.420;2022-10-18T16:53:31;18.50;99.90
64939;DHT22;51453;47.738;7.420;2022-10-18T16:55:58;18.40;99.90
64939;DHT22;51453;47.738;7.420;2022-10-18T16:58:27;18.30;99.90
64939;DHT22;51453;47.738;7.420;2022-10-18T17:00:53;18.30;99.90
64939;DHT22;51453;47.738;7.420;2022-10-18T17:03:19;18.20;99.90
64939;DHT22;51453;47.738;7.420;2022-10-18T17:05:44;18.20;99.90
64939;DHT22;51453;47.738;7.420;2022-10-18T17:08:25;18.20;99.90
64939;DHT22;51453;47.738;7.420;2022-10-18T17:10:52;18.10;99.90
64939;DHT22;51453;47.738;7.420;2022-10-18T17:13:19;18.00;99.90
64939;DHT22;51453;47.738;7.420;2022-10-18T17:15:45;18.00;99.90
64939;DHT22;51453;47.738;7.420;2022-10-18T17:18:16;17.90;99.90
64939;DHT22;51453;47.738;7.420;2022-10-18T17:20:43;17.90;99.90
64939;DHT22;51453;47.738;7.420;2022-10-18T17:23:10;17.80;99.90
64939;DHT22;51453;47.738;7.420;2022-10-18T17:25:37;17.70;99.90
64939;DHT22;51453;47.738;7.420;2022-10-18T17:28:04;17.60;99.90
64939;DHT22;51453;47.738;7.420;2022-10-18T17:30:30;17.60;99.90
64939;DHT22;51453;47.738;7.420;2022-10-18T17:32:56;17.60;99.90
64939;DHT22;51453;47.738;7.420;2022-10-18T17:35:25;17.50;99.90
64939;DHT22;51453;47.738;7.420;2022-10-18T17:37:52;17.40;99.90
64939;DHT22;51453;47.738;7.420;2022-10-18T17:40:21;17.40;99.90
64939;DHT22;51453;47.738;7.420;2022-10-18T17:42:55;17.30;99.90
64939;DHT22;51453;47.738;7.420;2022-10-18T17:45:23;17.20;99.90
64939;DHT22;51453;47.738;7.420;2022-10-18T17:47:52;17.20;99.90
64939;DHT22;51453;47.738;7.420;2022-10-18T17:50:27;17.10;99.90
64939;DHT22;51453;47.738;7.420;2022-10-18T17:53:07;17.10;99.90
64939;DHT22;51453;47.738;7.420;2022-10-18T17:55:38;17.00;99.90
64939;DHT22;51453;47.738;7.420;2022-10-18T17:58:15;16.90;99.90
64939;DHT22;51453;47.738;7.420;2022-10-18T18:00:50;16.90;99.90
64939;DHT22;51453;47.738;7.420;2022-10-18T18:03:19;16.80;99.90
64939;DHT22;51453;47.738;7.420;2022-10-18T18:06:13;16.70;99.90
64939;DHT22;51453;47.738;7.420;2022-10-18T18:08:44;16.70;99.90
64939;DHT22;51453;47.738;7.420;2022-10-18T18:11:11;16.60;99.90
64939;DHT22;51453;47.738;7.420;2022-10-18T18:13:37;16.50;99.90
64939;DHT22;51453;47.738;7.420;2022-10-18T18:16:21;16.50;99.90
64939;DHT22;51453;47.738;7.420;2022-10-18T18:18:49;16.40;99.90
64939;DHT22;51453;47.738;7.420;2022-10-18T18:21:16;16.40;99.90
64939;DHT22;51453;47.738;7.420;2022-10-18T18:23:43;16.40;99.90
64939;DHT22;51453;47.738;7.420;2022-10-18T18:26:09;16.50;99.90